Las Vegas, Nevada (DRI) Weather observations

Data are for observation ending at time listed.
 Day   Time    Ave.   Ave.  Ave.  Vector   Max.   Stn.    Total    Solar   Ave.  
  of    of     Air    Rel.  Wind   Wind    Wind   Baro.  Precip.   Rad.    Soil  
Year   Day     Temp.  Hum.  Speed  Dir.    Gust   Pres.                    Temp. 
2026   (PST)    F      %     mph   deg.    mph     mb.     in.     W/m2     F   
------------------------------------------------------------------------------
 128   10:20   93.6    13    1.8   200      4.1   940.9    0.00     871    81.0
 128   10:30   93.9    12    1.9   302      5.0   940.8    0.00     884    81.8
 128   10:40   94.1    12    1.9   280      4.2   940.7    0.00     898    82.7
 128   10:50   94.4    12    1.6   349      6.2   940.5    0.00     907    83.7
 128   11:00   94.8    12    1.7   345      6.1   940.4    0.00     916    84.7
 128   11:10   95.9    12    2.7   170      6.0   940.2    0.00     923    85.6
 128   11:20   96.0    12    2.3   182      6.9   940.0    0.00     931    86.5
 128   11:30   96.2    12    2.1   249      6.1   939.9    0.00     934    87.5
 128   11:40   96.8    12    2.4   185      5.5   939.8    0.00     934    88.3
 128   11:50   97.2    11    1.2   182      3.7   939.7    0.00     933    89.2
 128   12:00   97.3    11    2.6    40      6.1   939.6    0.00     930    90.1
 128   12:10   97.6    11    2.8   170      8.2   939.5    0.00     927    90.9
 128   12:20   97.1    11    2.8   102      9.4   939.4    0.00     924    91.8
 128   12:30   97.6    11    4.3   187      9.3   939.2    0.00     921    92.4
 128   12:40   98.4    11    2.5   186      8.6   939.0    0.00     910    93.0
 128   12:50   98.4    11    4.7   170     12.4   938.9    0.00     900    93.6
 128   13:00   99.0    11    2.3   192      6.4   938.8    0.00     890    94.1
 128   13:10   99.3    11    3.5   187     10.2   938.6    0.00     877    94.6
 128   13:20   99.8    11    2.8   219      7.5   938.5    0.00     862    95.1
 128   13:30   99.9    11    3.2   178     10.2   938.2    0.00     848    95.5
 128   13:40   99.5    11    4.0   175      9.9   938.1    0.00     831    96.0
 128   13:50   99.6    11    3.7   193     11.9   938.0    0.00     817    96.4
 128   14:00   99.9    10    3.2   347      6.5   937.9    0.00     797    96.9
 128   14:10  100.1    10    1.9   156      5.8   937.7    0.00     774    97.3
 128   14:20  101.3    11    2.7   195      6.6   937.4    0.00     750    97.6
 128   14:30  100.7    10    3.3   185      6.3   937.4    0.00     729    98.0
 128   14:40  100.9    10    2.5   158      5.8   937.2    0.00     706    98.3
 128   14:50  101.2    10    3.2   195      6.2   937.0    0.00     679    98.5
 128   15:00  101.1    10    3.8   214      9.2   937.0    0.00     652    98.7
 128   15:10  100.9    10    3.2   226      6.8   936.9    0.00     625    98.8
 128   15:20  101.9    10    1.6   180      5.0   936.7    0.00     597    98.9
 128   15:30  102.1    10    1.2   154      4.7   936.7    0.00     566    98.9
 128   15:40  102.1    10    2.1   181      4.4   936.6    0.00     536    98.9
 128   15:50  100.7    10    5.8   173     12.1   936.4    0.00     504    98.7
 128   16:00  100.6    10    4.2   209      9.8   936.4    0.00     472    98.6
 128   16:10  100.3    10    3.8   230      8.7   936.4    0.00     438    98.4
 128   16:20  100.0    10    5.2   195     10.6   936.3    0.00     406    98.2
 128   16:30   99.7    10    5.2   181     12.4   936.3    0.00     373    97.9
 128   16:40  100.1    10    3.8   202      8.8   936.2    0.00     338    97.6
 128   16:50   99.2    10    5.3   212     12.6   936.2    0.00     304    97.2
 128   17:00   99.0    10    4.9   187     13.5   936.1    0.00     271    97.0
 128   17:10   99.1    11    4.3   195      8.7   936.1    0.00     239    96.7
 128   17:20   98.2    11    5.6   200     10.7   936.1    0.00     207    96.4
 128   17:30   98.3    11    4.1   189      8.8   936.1    0.00     176    96.2
 128   17:40   98.4    10    3.6   230      7.1   936.2    0.00     146    95.8
 128   17:50   97.7    11    3.6   191     11.0   936.2    0.00     118    95.6
 128   18:00   96.5    11    3.6   206      8.0   936.2    0.00      44    95.3
 128   18:10   96.3    11    3.9   212     10.4   936.4    0.00      37    94.9
 128   18:20   96.1    10    1.9   269      5.5   936.4    0.00      23    94.6
 128   18:30   96.0    10    3.1   254      8.3   936.6    0.00       7    94.2
 128   18:40   95.3    11    2.2   218      6.4   936.6    0.00       4    94.0
 128   18:50   94.7    11    2.2   223      5.3   936.8    0.00       1    93.7
 128   19:00   94.1    11    3.1   195      8.0   936.8    0.00       0    93.4
 128   19:10   94.2    11    3.7   225      9.8   937.0    0.00       0    93.0
 128   19:20   93.7    11    2.7   193      5.7   937.1    0.00       0    92.6
 128   19:30   93.3    11    3.0   217      6.2   937.2    0.00       0    92.3
 128   19:40   93.1    11    3.0   192      8.0   937.2    0.00       0    92.1
 128   19:50   92.6    12    2.5   183      4.5   937.4    0.00       0    91.8
 128   20:00   92.4    12    3.3   190      9.3   937.5    0.00       0    91.5
 128   20:10   92.3    12    3.4   192      6.9   937.5    0.00       0    91.2
 128   20:20   91.8    12    2.5   194      5.1   937.6    0.00       0    91.0
 128   20:30   91.6    13    2.9   180      7.1   937.6    0.00       0    90.8
 128   20:40   91.4    13    2.7   186      5.0   937.7    0.00       0    90.5
 128   20:50   91.5    13    2.7   214      8.9   937.8    0.00       0    90.3
 128   21:00   91.7    12    2.5   217      6.5   937.8    0.00       0    90.1
 128   21:10   91.4    12    2.9   216      6.8   937.9    0.00       0    89.9
 128   21:20   90.9    12    2.5   220      6.0   937.9    0.00       0    89.7
 128   21:30   90.6    13    2.4   230      4.8   937.8    0.00       0    89.5
 128   21:40   90.4    13    2.3   212      5.3   937.9    0.00       0    89.3
 128   21:50   90.3    13    2.9   218      7.3   937.8    0.00       0    89.1
 128   22:00   90.0    13    2.0   200      5.6   937.8    0.00       0    89.0
 128   22:10   89.4    14    2.0   210      5.8   937.9    0.00       0    88.8
 128   22:20   89.2    14    1.6   217      5.7   938.0    0.00       0    88.6
 128   22:30   88.8    13    0.3   220      1.9   938.0    0.00       0    88.5
 128   22:40   88.0    14    0.5    56      1.8   938.1    0.00       0    88.3
 128   22:50   85.9    17    0.5   182      1.8   938.1    0.00       0    88.1
 128   23:00   84.2    16    1.8   192      3.4   938.2    0.00       0    88.0
 128   23:10   84.5    14    2.3   182      4.5   938.3    0.00       0    87.7
 128   23:20   85.0    14    2.8   174      5.2   938.2    0.00       0    87.6
 128   23:30   85.3    14    2.8   174      5.3   938.4    0.00       0    87.4
 128   23:40   85.6    15    1.8   171      4.5   938.4    0.00       0    87.2
 128   23:50   84.3    15    2.1   180      3.7   938.4    0.00       0    87.0
 129    0:00   83.5    16    2.5   180      5.2   938.4    0.00       0    86.8
 129    0:10   83.8    15    2.6   174      4.1   938.4    0.00       0    86.6
 129    0:20   83.7    15    2.6   178      4.4   938.3    0.00       0    86.5
 129    0:30   83.2    16    3.5   170      6.0   938.4    0.00       0    86.3
 129    0:40   82.9    17    3.0   175      5.0   938.3    0.00       0    86.1
 129    0:50   82.8    17    3.2   176      5.0   938.3    0.00       0    86.0
 129    1:00   82.8    18    2.7   169      5.5   938.4    0.00       0    85.8
 129    1:10   82.3    18    3.3   168      5.5   938.4    0.00       0    85.7
 129    1:20   82.1    19    3.7   166      5.9   938.4    0.00       0    85.5
 129    1:30   82.2    19    3.9   169      6.4   938.4    0.00       0    85.4
 129    1:40   82.3    19    3.9   172      7.9   938.5    0.00       0    85.2
 129    1:50   82.3    19    3.8   174      6.3   938.5    0.00       0    85.1
 129    2:00   81.9    19    3.1   172      4.6   938.5    0.00       0    84.9
 129    2:10   81.2    20    2.8   172      4.9   938.4    0.00       0    84.8
 129    2:20   80.7    20    0.7   187      2.3   938.5    0.00       0    84.7
 129    2:30   80.5    20    2.2   170      3.5   938.5    0.00       0    84.5
 129    2:40   80.4    20    2.4   173      3.9   938.5    0.00       0    84.4
 129    2:50   80.7    19    1.8   190      4.2   938.4    0.00       0    84.3
 129    3:00   80.9    19    0.9   155      2.6   938.6    0.00       0    84.2
 129    3:10   80.6    18    0.3    47      1.5   938.6    0.00       0    84.1
 129    3:20   79.3    20    0.6   160      2.0   938.7    0.00       0    83.9
 129    3:30   78.2    20    0.0     0      0.0   938.7    0.00       0    83.8
 129    3:40   76.8    22    0.4   200      1.7   938.7    0.00       0    83.7
 129    3:50   76.6    22    0.4   209      3.1   938.8    0.00       0    83.5
 129    4:00   77.3    23    0.8   172      2.3   939.0    0.00       0    83.4
 129    4:10   77.5    23    0.5   170      1.8   939.0    0.00       0    83.3
 129    4:20   77.2    24    0.4    39      1.9   939.2    0.00       0    83.1
 129    4:30   77.2    23    0.5    37      1.6   939.2    0.00       0    83.0
 129    4:40   76.7    23    0.6   348      2.3   939.4    0.00       2    82.8
 129    4:50   77.1    20    1.2    30      3.1   939.5    0.00       5    82.6
 129    5:00   76.6    20    0.4    62      1.9   939.6    0.00      13    82.5
 129    5:10   76.1    22    0.0     0      0.0   939.8    0.00      18    82.4
 129    5:20   75.7    22    0.6     8      2.7   940.0    0.00      27    82.2
 129    5:30   76.1    22    0.6   358      2.0   940.0    0.00      22    82.1
 129    5:40   76.5    22    0.5   330      2.3   940.1    0.00      22    82.0
 129    5:50   78.0    20    0.5   331      1.8   940.2    0.00      23    81.9
 129    6:00   79.2    17    2.0   317      6.1   940.3    0.00      25    81.8
 129    6:10   79.7    17    1.2   287      3.6   940.4    0.00      26    81.7
 129    6:20   79.9    15    1.5   297      4.5   940.6    0.00      28    81.6
 129    6:30   79.5    15    1.8   319      6.7   940.7    0.00      29    81.5
 129    6:40   79.8    15    1.5   277      5.2   940.7    0.00      31    81.5
 129    6:50   80.4    15    0.9   309      3.5   940.7    0.00      32    81.5
 129    7:00   80.7    15    0.9   278      2.9   940.6    0.00      33    81.4
 129    7:10   81.4    15    1.2   328      3.5   940.7    0.00      35    81.4
 129    7:20   82.4    15    1.9   332      3.6   940.7    0.00      37    81.4
 129    7:30   83.5    15    1.8   331      4.8   940.7    0.00      40    81.3
 129    7:40   84.2    15    1.8   348      4.2   940.7    0.00      43    81.3
 129    7:50   84.8    15    1.6    30      3.8   940.7    0.00      43    81.3
 129    8:00   85.3    15    1.2    66      3.4   940.6    0.00      72    81.3
 129    8:10   86.0    14    1.8    45      4.2   940.6    0.00      82    81.2
 129    8:20   87.3    13    2.1   356      5.2   940.7    0.00      70    81.2
 129    8:30   87.6    13    1.4    66      3.3   940.7    0.00      73    81.2
 129    8:40   88.0    14    0.8    64      2.9   940.6    0.00     195    81.2
 129    8:50   88.3    13    1.5    55      4.4   940.6    0.00     596    81.2
 129    9:00   88.7    13    0.8    29      3.1   940.6    0.00     629    81.2
 129    9:10   89.7    12    1.5    54      3.9   940.6    0.00     741    81.3
 129    9:20   90.1    12    1.4   350      5.0   940.6    0.00     764    81.4
 129    9:30   91.5    12    1.1   114      3.2   940.7    0.00     786    81.6
 129    9:40   92.4    12    1.4    29      5.4   940.6    0.00     806    81.8
 129    9:50   92.4    12    1.6    37      3.7   940.5    0.00     826    82.0
 129   10:00   92.2    12    1.7    41      4.5   940.5    0.00     844    82.2
 129   10:10   93.6    12    1.4   152      3.5   940.4    0.00     861    82.7

Return to Las Vegas, Nevada graphs page.


Western Regional Climate Center,wrcc@dri.edu